sensor_id;sensor_type;location;lat;lon;timestamp;temperature;humidity
41668;DHT22;27356;50.920;5.350;2022-08-05T00:00:00;19.20;99.90
41668;DHT22;27356;50.920;5.350;2022-08-05T00:02:26;19.20;99.90
41668;DHT22;27356;50.920;5.350;2022-08-05T00:04:51;19.20;99.90
41668;DHT22;27356;50.920;5.350;2022-08-05T00:07:17;19.30;99.90
41668;DHT22;27356;50.920;5.350;2022-08-05T00:09:42;19.30;99.90
41668;DHT22;27356;50.920;5.350;2022-08-05T00:12:08;19.20;99.90
41668;DHT22;27356;50.920;5.350;2022-08-05T00:14:33;19.10;99.90
41668;DHT22;27356;50.920;5.350;2022-08-05T00:16:59;19.10;99.90
41668;DHT22;27356;50.920;5.350;2022-08-05T00:19:24;19.10;99.90
41668;DHT22;27356;50.920;5.350;2022-08-05T00:21:50;19.10;99.90
41668;DHT22;27356;50.920;5.350;2022-08-05T00:24:16;19.00;99.90
41668;DHT22;27356;50.920;5.350;2022-08-05T00:26:41;19.00;99.90
41668;DHT22;27356;50.920;5.350;2022-08-05T00:29:07;19.00;99.90
41668;DHT22;27356;50.920;5.350;2022-08-05T00:31:32;18.90;99.90
41668;DHT22;27356;50.920;5.350;2022-08-05T00:33:58;18.90;99.90
41668;DHT22;27356;50.920;5.350;2022-08-05T00:36:23;18.90;99.90
41668;DHT22;27356;50.920;5.350;2022-08-05T00:38:49;18.90;99.90
41668;DHT22;27356;50.920;5.350;2022-08-05T00:41:25;18.90;99.90
41668;DHT22;27356;50.920;5.350;2022-08-05T00:43:51;19.00;99.90
41668;DHT22;27356;50.920;5.350;2022-08-05T00:46:16;19.00;99.90
41668;DHT22;27356;50.920;5.350;2022-08-05T00:48:42;19.10;99.90
41668;DHT22;27356;50.920;5.350;2022-08-05T00:51:08;19.10;99.90
41668;DHT22;27356;50.920;5.350;2022-08-05T00:53:33;19.10;99.90
41668;DHT22;27356;50.920;5.350;2022-08-05T00:55:59;19.20;99.90
41668;DHT22;27356;50.920;5.350;2022-08-05T00:58:24;19.10;99.90
41668;DHT22;27356;50.920;5.350;2022-08-05T01:00:50;19.20;99.90
41668;DHT22;27356;50.920;5.350;2022-08-05T01:03:15;19.30;99.90
41668;DHT22;27356;50.920;5.350;2022-08-05T01:05:41;19.40;99.90
41668;DHT22;27356;50.920;5.350;2022-08-05T01:08:06;19.40;99.90
41668;DHT22;27356;50.920;5.350;2022-08-05T01:10:50;19.40;99.90
41668;DHT22;27356;50.920;5.350;2022-08-05T01:13:31;19.40;99.90
41668;DHT22;27356;50.920;5.350;2022-08-05T01:15:59;19.40;99.90
41668;DHT22;27356;50.920;5.350;2022-08-05T01:18:28;19.40;99.90
41668;DHT22;27356;50.920;5.350;2022-08-05T01:23:43;19.50;99.90
41668;DHT22;27356;50.920;5.350;2022-08-05T01:28:51;19.40;99.90
41668;DHT22;27356;50.920;5.350;2022-08-05T01:36:21;18.70;99.90
41668;DHT22;27356;50.920;5.350;2022-08-05T01:38:50;18.80;99.90
41668;DHT22;27356;50.920;5.350;2022-08-05T01:41:16;18.90;99.90
41668;DHT22;27356;50.920;5.350;2022-08-05T01:43:42;18.60;99.90
41668;DHT22;27356;50.920;5.350;2022-08-05T01:46:08;18.50;99.90
41668;DHT22;27356;50.920;5.350;2022-08-05T01:48:35;18.50;99.90
41668;DHT22;27356;50.920;5.350;2022-08-05T01:51:01;18.50;99.90
41668;DHT22;27356;50.920;5.350;2022-08-05T01:53:27;18.50;99.90
41668;DHT22;27356;50.920;5.350;2022-08-05T01:55:54;18.40;99.90
41668;DHT22;27356;50.920;5.350;2022-08-05T01:58:22;18.40;99.90
41668;DHT22;27356;50.920;5.350;2022-08-05T02:00:50;18.40;99.90
41668;DHT22;27356;50.920;5.350;2022-08-05T02:03:17;18.50;99.90
41668;DHT22;27356;50.920;5.350;2022-08-05T02:05:44;18.50;99.90
41668;DHT22;27356;50.920;5.350;2022-08-05T02:08:10;18.50;99.90
41668;DHT22;27356;50.920;5.350;2022-08-05T02:10:41;18.50;99.90
41668;DHT22;27356;50.920;5.350;2022-08-05T02:13:12;18.50;99.90
41668;DHT22;27356;50.920;5.350;2022-08-05T02:15:43;18.40;99.90
41668;DHT22;27356;50.920;5.350;2022-08-05T02:20:55;18.40;99.90
41668;DHT22;27356;50.920;5.350;2022-08-05T02:23:22;18.50;99.90
41668;DHT22;27356;50.920;5.350;2022-08-05T02:25:48;18.60;99.90
41668;DHT22;27356;50.920;5.350;2022-08-05T02:28:15;18.60;99.90
41668;DHT22;27356;50.920;5.350;2022-08-05T02:30:42;18.50;99.90
41668;DHT22;27356;50.920;5.350;2022-08-05T02:33:09;18.50;99.90
41668;DHT22;27356;50.920;5.350;2022-08-05T02:35:35;18.60;99.90
41668;DHT22;27356;50.920;5.350;2022-08-05T02:38:02;18.70;99.90
41668;DHT22;27356;50.920;5.350;2022-08-05T02:40:28;18.70;99.90
41668;DHT22;27356;50.920;5.350;2022-08-05T02:42:54;18.80;99.90
41668;DHT22;27356;50.920;5.350;2022-08-05T02:45:21;18.80;99.90
41668;DHT22;27356;50.920;5.350;2022-08-05T02:47:48;18.80;99.90
41668;DHT22;27356;50.920;5.350;2022-08-05T02:50:14;18.80;99.90
41668;DHT22;27356;50.920;5.350;2022-08-05T02:52:40;18.80;99.90
41668;DHT22;27356;50.920;5.350;2022-08-05T02:55:05;18.70;99.90
41668;DHT22;27356;50.920;5.350;2022-08-05T02:57:32;18.80;99.90
41668;DHT22;27356;50.920;5.350;2022-08-05T02:59:59;18.70;99.90
41668;DHT22;27356;50.920;5.350;2022-08-05T03:02:26;18.80;99.90
41668;DHT22;27356;50.920;5.350;2022-08-05T03:04:53;18.80;99.90
41668;DHT22;27356;50.920;5.350;2022-08-05T03:07:18;18.80;99.90
41668;DHT22;27356;50.920;5.350;2022-08-05T03:09:45;18.80;99.90
41668;DHT22;27356;50.920;5.350;2022-08-05T03:12:28;18.90;99.90
41668;DHT22;27356;50.920;5.350;2022-08-05T03:14:53;18.90;99.90
41668;DHT22;27356;50.920;5.350;2022-08-05T03:17:19;18.80;99.90
41668;DHT22;27356;50.920;5.350;2022-08-05T03:19:44;18.80;99.90
41668;DHT22;27356;50.920;5.350;2022-08-05T03:22:10;18.90;99.90
41668;DHT22;27356;50.920;5.350;2022-08-05T03:24:36;18.80;99.90
41668;DHT22;27356;50.920;5.350;2022-08-05T03:27:02;18.90;99.90
41668;DHT22;27356;50.920;5.350;2022-08-05T03:29:27;18.90;99.90
41668;DHT22;27356;50.920;5.350;2022-08-05T03:31:53;19.00;99.90
41668;DHT22;27356;50.920;5.350;2022-08-05T03:34:19;18.90;99.90
41668;DHT22;27356;50.920;5.350;2022-08-05T03:36:44;18.80;99.90
41668;DHT22;27356;50.920;5.350;2022-08-05T03:39:10;18.80;99.90
41668;DHT22;27356;50.920;5.350;2022-08-05T03:41:35;18.90;99.90
41668;DHT22;27356;50.920;5.350;2022-08-05T03:44:01;18.90;99.90
41668;DHT22;27356;50.920;5.350;2022-08-05T03:46:26;18.80;99.90
41668;DHT22;27356;50.920;5.350;2022-08-05T03:48:52;18.80;99.90
41668;DHT22;27356;50.920;5.350;2022-08-05T03:51:20;18.80;99.90
41668;DHT22;27356;50.920;5.350;2022-08-05T03:53:48;18.80;99.90
41668;DHT22;27356;50.920;5.350;2022-08-05T03:56:22;18.80;99.90
41668;DHT22;27356;50.920;5.350;2022-08-05T03:58:49;18.80;99.90
41668;DHT22;27356;50.920;5.350;2022-08-05T04:01:16;18.80;99.90
41668;DHT22;27356;50.920;5.350;2022-08-05T04:03:43;18.80;99.90
41668;DHT22;27356;50.920;5.350;2022-08-05T04:06:10;18.80;99.90
41668;DHT22;27356;50.920;5.350;2022-08-05T04:08:36;18.90;99.90
41668;DHT22;27356;50.920;5.350;2022-08-05T04:11:03;18.90;99.90
41668;DHT22;27356;50.920;5.350;2022-08-05T04:13:31;18.90;99.90
41668;DHT22;27356;50.920;5.350;2022-08-05T04:15:57;18.90;99.90
41668;DHT22;27356;50.920;5.350;2022-08-05T04:18:22;18.90;99.90
41668;DHT22;27356;50.920;5.350;2022-08-05T04:20:55;19.00;99.90
41668;DHT22;27356;50.920;5.350;2022-08-05T04:23:22;19.00;99.90
41668;DHT22;27356;50.920;5.350;2022-08-05T04:25:49;19.00;99.90
41668;DHT22;27356;50.920;5.350;2022-08-05T04:28:14;18.90;99.90
41668;DHT22;27356;50.920;5.350;2022-08-05T04:30:40;18.90;99.90
41668;DHT22;27356;50.920;5.350;2022-08-05T04:33:05;18.90;99.90
41668;DHT22;27356;50.920;5.350;2022-08-05T04:35:31;19.00;99.90
41668;DHT22;27356;50.920;5.350;2022-08-05T04:37:56;19.00;99.90
41668;DHT22;27356;50.920;5.350;2022-08-05T04:40:22;18.90;99.90
41668;DHT22;27356;50.920;5.350;2022-08-05T04:42:47;18.90;99.90
41668;DHT22;27356;50.920;5.350;2022-08-05T04:45:13;18.90;99.90
41668;DHT22;27356;50.920;5.350;2022-08-05T04:47:39;18.90;99.90
41668;DHT22;27356;50.920;5.350;2022-08-05T04:50:04;18.90;99.90
41668;DHT22;27356;50.920;5.350;2022-08-05T04:52:30;18.90;99.90
41668;DHT22;27356;50.920;5.350;2022-08-05T04:54:55;18.80;99.90
41668;DHT22;27356;50.920;5.350;2022-08-05T04:57:21;18.80;99.90
41668;DHT22;27356;50.920;5.350;2022-08-05T04:59:46;18.80;99.90
41668;DHT22;27356;50.920;5.350;2022-08-05T05:02:12;18.70;99.90
41668;DHT22;27356;50.920;5.350;2022-08-05T05:04:37;18.70;99.90
41668;DHT22;27356;50.920;5.350;2022-08-05T05:07:03;18.60;99.90
41668;DHT22;27356;50.920;5.350;2022-08-05T05:09:28;18.60;99.90
41668;DHT22;27356;50.920;5.350;2022-08-05T05:11:54;18.60;99.90
41668;DHT22;27356;50.920;5.350;2022-08-05T05:14:19;18.70;99.90
41668;DHT22;27356;50.920;5.350;2022-08-05T05:16:45;18.50;99.90
41668;DHT22;27356;50.920;5.350;2022-08-05T05:19:10;18.40;99.90
41668;DHT22;27356;50.920;5.350;2022-08-05T05:21:36;18.40;99.90
41668;DHT22;27356;50.920;5.350;2022-08-05T05:24:02;18.50;99.90
41668;DHT22;27356;50.920;5.350;2022-08-05T05:26:27;18.50;99.90
41668;DHT22;27356;50.920;5.350;2022-08-05T05:28:53;18.40;99.90
41668;DHT22;27356;50.920;5.350;2022-08-05T05:31:18;18.40;99.90
41668;DHT22;27356;50.920;5.350;2022-08-05T05:33:44;18.50;99.90
41668;DHT22;27356;50.920;5.350;2022-08-05T05:36:09;18.50;99.90
41668;DHT22;27356;50.920;5.350;2022-08-05T05:38:35;18.50;99.90
41668;DHT22;27356;50.920;5.350;2022-08-05T05:41:00;18.50;99.90
41668;DHT22;27356;50.920;5.350;2022-08-05T05:43:26;18.30;99.90
41668;DHT22;27356;50.920;5.350;2022-08-05T05:45:51;18.30;99.90
41668;DHT22;27356;50.920;5.350;2022-08-05T05:48:17;18.40;99.90
41668;DHT22;27356;50.920;5.350;2022-08-05T05:50:42;18.50;99.90
41668;DHT22;27356;50.920;5.350;2022-08-05T05:53:13;18.40;99.90
41668;DHT22;27356;50.920;5.350;2022-08-05T05:55:40;18.30;99.90
41668;DHT22;27356;50.920;5.350;2022-08-05T05:58:05;18.20;99.90
41668;DHT22;27356;50.920;5.350;2022-08-05T06:00:31;18.10;99.90
41668;DHT22;27356;50.920;5.350;2022-08-05T06:02:57;18.20;99.90
41668;DHT22;27356;50.920;5.350;2022-08-05T06:05:22;18.20;99.90
41668;DHT22;27356;50.920;5.350;2022-08-05T06:07:48;18.20;99.90
41668;DHT22;27356;50.920;5.350;2022-08-05T06:10:14;18.20;99.90
41668;DHT22;27356;50.920;5.350;2022-08-05T06:12:39;18.20;99.90
41668;DHT22;27356;50.920;5.350;2022-08-05T06:15:05;18.30;99.90
41668;DHT22;27356;50.920;5.350;2022-08-05T06:17:31;18.30;99.90
41668;DHT22;27356;50.920;5.350;2022-08-05T06:19:57;18.40;99.90
41668;DHT22;27356;50.920;5.350;2022-08-05T06:22:23;18.40;99.90
41668;DHT22;27356;50.920;5.350;2022-08-05T06:24:49;18.30;99.90
41668;DHT22;27356;50.920;5.350;2022-08-05T06:27:15;18.30;99.90
41668;DHT22;27356;50.920;5.350;2022-08-05T06:29:40;18.20;99.90
41668;DHT22;27356;50.920;5.350;2022-08-05T06:32:06;18.20;99.90
41668;DHT22;27356;50.920;5.350;2022-08-05T06:34:32;18.00;99.90
41668;DHT22;27356;50.920;5.350;2022-08-05T06:36:57;17.90;99.90
41668;DHT22;27356;50.920;5.350;2022-08-05T06:39:23;18.00;99.90
41668;DHT22;27356;50.920;5.350;2022-08-05T06:41:48;17.90;99.90
41668;DHT22;27356;50.920;5.350;2022-08-05T06:44:14;17.90;99.90
41668;DHT22;27356;50.920;5.350;2022-08-05T06:46:40;18.00;99.90
41668;DHT22;27356;50.920;5.350;2022-08-05T06:49:05;18.00;99.90
41668;DHT22;27356;50.920;5.350;2022-08-05T06:51:31;17.80;99.90
41668;DHT22;27356;50.920;5.350;2022-08-05T06:53:57;17.80;99.90
41668;DHT22;27356;50.920;5.350;2022-08-05T06:56:23;17.70;99.90
41668;DHT22;27356;50.920;5.350;2022-08-05T06:58:48;17.80;99.90
41668;DHT22;27356;50.920;5.350;2022-08-05T07:01:14;17.80;99.90
41668;DHT22;27356;50.920;5.350;2022-08-05T07:03:39;17.80;99.90
41668;DHT22;27356;50.920;5.350;2022-08-05T07:06:05;17.80;99.90
41668;DHT22;27356;50.920;5.350;2022-08-05T07:08:31;17.80;99.90
41668;DHT22;27356;50.920;5.350;2022-08-05T07:10:56;17.90;99.90
41668;DHT22;27356;50.920;5.350;2022-08-05T07:13:22;18.00;99.90
41668;DHT22;27356;50.920;5.350;2022-08-05T07:16:06;18.10;99.90
41668;DHT22;27356;50.920;5.350;2022-08-05T07:18:51;18.30;99.90
41668;DHT22;27356;50.920;5.350;2022-08-05T07:21:16;18.40;99.90
41668;DHT22;27356;50.920;5.350;2022-08-05T07:23:42;18.60;99.90
41668;DHT22;27356;50.920;5.350;2022-08-05T07:26:07;18.50;99.90
41668;DHT22;27356;50.920;5.350;2022-08-05T07:28:33;18.50;99.90
41668;DHT22;27356;50.920;5.350;2022-08-05T07:30:58;18.50;99.90
41668;DHT22;27356;50.920;5.350;2022-08-05T07:33:24;18.50;99.90
41668;DHT22;27356;50.920;5.350;2022-08-05T07:35:49;18.40;99.90
41668;DHT22;27356;50.920;5.350;2022-08-05T07:38:15;18.40;99.90
41668;DHT22;27356;50.920;5.350;2022-08-05T07:40:41;18.50;99.90
41668;DHT22;27356;50.920;5.350;2022-08-05T07:43:08;18.40;99.90
41668;DHT22;27356;50.920;5.350;2022-08-05T07:45:33;18.50;99.90
41668;DHT22;27356;50.920;5.350;2022-08-05T07:47:59;18.50;99.90
41668;DHT22;27356;50.920;5.350;2022-08-05T07:50:24;18.70;99.90
41668;DHT22;27356;50.920;5.350;2022-08-05T07:52:50;18.90;99.90
41668;DHT22;27356;50.920;5.350;2022-08-05T07:55:16;19.20;99.90
41668;DHT22;27356;50.920;5.350;2022-08-05T07:57:41;19.30;99.90
41668;DHT22;27356;50.920;5.350;2022-08-05T08:00:07;19.40;99.90
41668;DHT22;27356;50.920;5.350;2022-08-05T08:02:33;19.50;99.90
41668;DHT22;27356;50.920;5.350;2022-08-05T08:04:58;19.60;99.90
41668;DHT22;27356;50.920;5.350;2022-08-05T08:07:24;19.60;99.90
41668;DHT22;27356;50.920;5.350;2022-08-05T08:09:50;20.00;99.90
41668;DHT22;27356;50.920;5.350;2022-08-05T08:12:16;20.70;99.90
41668;DHT22;27356;50.920;5.350;2022-08-05T08:14:41;20.90;99.90
41668;DHT22;27356;50.920;5.350;2022-08-05T08:17:07;21.30;99.90
41668;DHT22;27356;50.920;5.350;2022-08-05T08:19:36;21.60;99.90
41668;DHT22;27356;50.920;5.350;2022-08-05T08:22:02;21.50;99.90
41668;DHT22;27356;50.920;5.350;2022-08-05T08:24:28;21.60;99.90
41668;DHT22;27356;50.920;5.350;2022-08-05T08:26:54;21.80;99.90
41668;DHT22;27356;50.920;5.350;2022-08-05T08:29:19;22.10;99.90
41668;DHT22;27356;50.920;5.350;2022-08-05T08:31:45;22.70;99.90
41668;DHT22;27356;50.920;5.350;2022-08-05T08:34:10;24.00;99.90
41668;DHT22;27356;50.920;5.350;2022-08-05T08:36:36;24.50;99.90
41668;DHT22;27356;50.920;5.350;2022-08-05T08:39:01;24.90;99.90
41668;DHT22;27356;50.920;5.350;2022-08-05T08:41:27;24.00;99.90
41668;DHT22;27356;50.920;5.350;2022-08-05T08:43:54;23.70;99.90
41668;DHT22;27356;50.920;5.350;2022-08-05T08:46:20;24.70;99.90
41668;DHT22;27356;50.920;5.350;2022-08-05T08:48:45;25.10;99.90
41668;DHT22;27356;50.920;5.350;2022-08-05T08:51:12;25.30;99.30
41668;DHT22;27356;50.920;5.350;2022-08-05T08:53:38;25.20;97.90
41668;DHT22;27356;50.920;5.350;2022-08-05T08:56:05;25.00;99.20
41668;DHT22;27356;50.920;5.350;2022-08-05T08:58:31;25.30;98.00
41668;DHT22;27356;50.920;5.350;2022-08-05T09:00:57;25.20;99.80
41668;DHT22;27356;50.920;5.350;2022-08-05T09:03:22;25.50;98.90
41668;DHT22;27356;50.920;5.350;2022-08-05T09:05:48;25.70;97.00
41668;DHT22;27356;50.920;5.350;2022-08-05T09:08:14;26.20;96.10
41668;DHT22;27356;50.920;5.350;2022-08-05T09:10:41;25.90;95.70
41668;DHT22;27356;50.920;5.350;2022-08-05T09:13:08;25.60;97.20
41668;DHT22;27356;50.920;5.350;2022-08-05T09:15:34;25.50;98.40
41668;DHT22;27356;50.920;5.350;2022-08-05T09:18:01;25.50;98.50
41668;DHT22;27356;50.920;5.350;2022-08-05T09:20:27;25.40;99.30
41668;DHT22;27356;50.920;5.350;2022-08-05T09:23:02;25.20;97.70
41668;DHT22;27356;50.920;5.350;2022-08-05T09:25:27;25.20;97.30
41668;DHT22;27356;50.920;5.350;2022-08-05T09:27:54;24.90;98.10
41668;DHT22;27356;50.920;5.350;2022-08-05T09:30:19;24.80;97.70
41668;DHT22;27356;50.920;5.350;2022-08-05T09:32:45;24.80;99.00
41668;DHT22;27356;50.920;5.350;2022-08-05T09:35:14;24.70;98.20
41668;DHT22;27356;50.920;5.350;2022-08-05T09:37:50;25.00;97.70
41668;DHT22;27356;50.920;5.350;2022-08-05T09:40:33;25.00;99.10
41668;DHT22;27356;50.920;5.350;2022-08-05T09:43:00;25.00;97.60
41668;DHT22;27356;50.920;5.350;2022-08-05T09:45:36;25.30;98.80
41668;DHT22;27356;50.920;5.350;2022-08-05T09:48:22;25.30;99.50
41668;DHT22;27356;50.920;5.350;2022-08-05T09:50:50;25.50;96.80
41668;DHT22;27356;50.920;5.350;2022-08-05T09:53:16;26.50;96.40
41668;DHT22;27356;50.920;5.350;2022-08-05T09:55:42;26.80;97.10
41668;DHT22;27356;50.920;5.350;2022-08-05T09:58:11;27.50;95.10
41668;DHT22;27356;50.920;5.350;2022-08-05T10:00:37;27.20;92.20
41668;DHT22;27356;50.920;5.350;2022-08-05T10:03:09;26.40;93.80
41668;DHT22;27356;50.920;5.350;2022-08-05T10:05:35;26.40;93.70
41668;DHT22;27356;50.920;5.350;2022-08-05T10:08:04;27.20;92.70
41668;DHT22;27356;50.920;5.350;2022-08-05T10:13:08;27.00;93.10
41668;DHT22;27356;50.920;5.350;2022-08-05T10:15:40;26.60;92.20
41668;DHT22;27356;50.920;5.350;2022-08-05T10:18:12;26.50;94.00
41668;DHT22;27356;50.920;5.350;2022-08-05T10:20:40;26.50;93.70
41668;DHT22;27356;50.920;5.350;2022-08-05T10:23:07;26.20;91.90
41668;DHT22;27356;50.920;5.350;2022-08-05T10:25:36;26.20;91.90
41668;DHT22;27356;50.920;5.350;2022-08-05T10:28:07;26.40;90.80
41668;DHT22;27356;50.920;5.350;2022-08-05T10:30:34;26.00;91.40
41668;DHT22;27356;50.920;5.350;2022-08-05T10:33:00;25.50;90.80
41668;DHT22;27356;50.920;5.350;2022-08-05T10:35:26;25.30;92.20
41668;DHT22;27356;50.920;5.350;2022-08-05T10:37:52;25.30;92.50
41668;DHT22;27356;50.920;5.350;2022-08-05T10:42:51;25.70;95.80
41668;DHT22;27356;50.920;5.350;2022-08-05T10:45:23;25.70;90.70
41668;DHT22;27356;50.920;5.350;2022-08-05T10:47:49;25.50;90.40
41668;DHT22;27356;50.920;5.350;2022-08-05T10:50:15;25.60;91.60
41668;DHT22;27356;50.920;5.350;2022-08-05T10:55:10;26.00;91.20
41668;DHT22;27356;50.920;5.350;2022-08-05T10:57:36;25.90;89.80
41668;DHT22;27356;50.920;5.350;2022-08-05T11:00:06;25.50;90.00
41668;DHT22;27356;50.920;5.350;2022-08-05T11:02:32;25.70;90.70
41668;DHT22;27356;50.920;5.350;2022-08-05T11:04:57;25.70;88.60
41668;DHT22;27356;50.920;5.350;2022-08-05T11:07:23;25.60;90.50
41668;DHT22;27356;50.920;5.350;2022-08-05T11:09:52;25.50;91.90
41668;DHT22;27356;50.920;5.350;2022-08-05T11:15:26;25.80;91.20
41668;DHT22;27356;50.920;5.350;2022-08-05T11:17:53;25.50;91.80
41668;DHT22;27356;50.920;5.350;2022-08-05T11:20:33;25.50;91.70
41668;DHT22;27356;50.920;5.350;2022-08-05T11:23:24;25.40;90.90
41668;DHT22;27356;50.920;5.350;2022-08-05T11:25:59;25.50;90.30
41668;DHT22;27356;50.920;5.350;2022-08-05T11:33:28;25.20;92.40
41668;DHT22;27356;50.920;5.350;2022-08-05T11:35:55;25.10;91.60
41668;DHT22;27356;50.920;5.350;2022-08-05T11:41:05;25.50;90.90
41668;DHT22;27356;50.920;5.350;2022-08-05T11:43:31;25.40;90.40
41668;DHT22;27356;50.920;5.350;2022-08-05T11:45:57;25.70;90.20
41668;DHT22;27356;50.920;5.350;2022-08-05T11:48:23;25.40;89.50
41668;DHT22;27356;50.920;5.350;2022-08-05T11:50:49;25.40;88.20
41668;DHT22;27356;50.920;5.350;2022-08-05T11:53:15;25.30;89.80
41668;DHT22;27356;50.920;5.350;2022-08-05T11:55:54;25.80;89.70
41668;DHT22;27356;50.920;5.350;2022-08-05T11:58:33;25.90;87.40
41668;DHT22;27356;50.920;5.350;2022-08-05T12:01:05;25.60;86.60
41668;DHT22;27356;50.920;5.350;2022-08-05T12:06:12;25.00;88.80
41668;DHT22;27356;50.920;5.350;2022-08-05T12:11:11;25.20;84.50
41668;DHT22;27356;50.920;5.350;2022-08-05T12:13:39;25.20;82.30
41668;DHT22;27356;50.920;5.350;2022-08-05T12:16:06;25.10;81.90
41668;DHT22;27356;50.920;5.350;2022-08-05T12:18:32;25.30;84.20
41668;DHT22;27356;50.920;5.350;2022-08-05T12:21:11;25.20;83.40
41668;DHT22;27356;50.920;5.350;2022-08-05T12:23:39;25.40;84.20
41668;DHT22;27356;50.920;5.350;2022-08-05T12:26:15;25.60;83.00
41668;DHT22;27356;50.920;5.350;2022-08-05T12:28:40;25.60;84.10
41668;DHT22;27356;50.920;5.350;2022-08-05T12:31:06;25.70;81.70
41668;DHT22;27356;50.920;5.350;2022-08-05T12:33:32;25.80;82.80
41668;DHT22;27356;50.920;5.350;2022-08-05T12:35:59;25.70;81.60
41668;DHT22;27356;50.920;5.350;2022-08-05T12:38:25;25.90;82.50
41668;DHT22;27356;50.920;5.350;2022-08-05T12:40:50;25.90;81.20
41668;DHT22;27356;50.920;5.350;2022-08-05T12:43:16;26.10;80.90
41668;DHT22;27356;50.920;5.350;2022-08-05T12:45:55;26.30;81.90
41668;DHT22;27356;50.920;5.350;2022-08-05T12:48:20;26.50;79.10
41668;DHT22;27356;50.920;5.350;2022-08-05T12:53:31;25.90;80.50
41668;DHT22;27356;50.920;5.350;2022-08-05T12:55:56;25.90;78.70
41668;DHT22;27356;50.920;5.350;2022-08-05T12:58:22;26.00;78.60
41668;DHT22;27356;50.920;5.350;2022-08-05T13:00:48;26.20;77.80
41668;DHT22;27356;50.920;5.350;2022-08-05T13:03:15;26.20;77.60
41668;DHT22;27356;50.920;5.350;2022-08-05T13:05:41;25.80;78.00
41668;DHT22;27356;50.920;5.350;2022-08-05T13:08:06;25.60;79.40
41668;DHT22;27356;50.920;5.350;2022-08-05T13:10:32;25.50;78.90
41668;DHT22;27356;50.920;5.350;2022-08-05T13:13:06;25.50;77.80
41668;DHT22;27356;50.920;5.350;2022-08-05T13:15:31;25.50;76.40
41668;DHT22;27356;50.920;5.350;2022-08-05T13:17:57;25.40;76.60
41668;DHT22;27356;50.920;5.350;2022-08-05T13:20:22;25.50;77.50
41668;DHT22;27356;50.920;5.350;2022-08-05T13:22:57;25.70;77.20
41668;DHT22;27356;50.920;5.350;2022-08-05T13:25:23;25.60;75.90
41668;DHT22;27356;50.920;5.350;2022-08-05T13:27:52;25.60;77.10
41668;DHT22;27356;50.920;5.350;2022-08-05T13:30:19;25.50;77.00
41668;DHT22;27356;50.920;5.350;2022-08-05T13:32:45;25.60;76.50
41668;DHT22;27356;50.920;5.350;2022-08-05T13:35:16;26.00;76.60
41668;DHT22;27356;50.920;5.350;2022-08-05T13:37:41;26.30;76.80
41668;DHT22;27356;50.920;5.350;2022-08-05T13:40:07;26.70;74.60
41668;DHT22;27356;50.920;5.350;2022-08-05T13:42:33;26.70;75.90
41668;DHT22;27356;50.920;5.350;2022-08-05T13:44:59;26.90;75.00
41668;DHT22;27356;50.920;5.350;2022-08-05T13:47:24;27.00;74.70
41668;DHT22;27356;50.920;5.350;2022-08-05T13:49:51;26.90;76.70
41668;DHT22;27356;50.920;5.350;2022-08-05T13:52:23;26.90;74.20
41668;DHT22;27356;50.920;5.350;2022-08-05T13:54:54;26.50;72.70
41668;DHT22;27356;50.920;5.350;2022-08-05T13:57:19;26.10;74.80
41668;DHT22;27356;50.920;5.350;2022-08-05T13:59:45;25.60;75.00
41668;DHT22;27356;50.920;5.350;2022-08-05T14:02:12;25.30;75.40
41668;DHT22;27356;50.920;5.350;2022-08-05T14:04:39;24.70;77.10
41668;DHT22;27356;50.920;5.350;2022-08-05T14:07:24;24.80;78.10
41668;DHT22;27356;50.920;5.350;2022-08-05T14:09:50;25.10;77.00
41668;DHT22;27356;50.920;5.350;2022-08-05T14:12:16;25.50;76.40
41668;DHT22;27356;50.920;5.350;2022-08-05T14:14:41;25.50;74.50
41668;DHT22;27356;50.920;5.350;2022-08-05T14:17:07;25.50;74.60
41668;DHT22;27356;50.920;5.350;2022-08-05T14:19:32;25.40;75.30
41668;DHT22;27356;50.920;5.350;2022-08-05T14:21:58;25.30;75.00
41668;DHT22;27356;50.920;5.350;2022-08-05T14:24:24;25.20;74.60
41668;DHT22;27356;50.920;5.350;2022-08-05T14:26:49;24.90;75.10
41668;DHT22;27356;50.920;5.350;2022-08-05T14:29:15;24.90;74.80
41668;DHT22;27356;50.920;5.350;2022-08-05T14:31:40;24.80;74.50
41668;DHT22;27356;50.920;5.350;2022-08-05T14:34:06;24.90;73.70
41668;DHT22;27356;50.920;5.350;2022-08-05T14:36:31;24.90;71.70
41668;DHT22;27356;50.920;5.350;2022-08-05T14:38:57;24.80;72.50
41668;DHT22;27356;50.920;5.350;2022-08-05T14:41:22;24.70;72.00
41668;DHT22;27356;50.920;5.350;2022-08-05T14:43:48;24.80;71.20
41668;DHT22;27356;50.920;5.350;2022-08-05T14:46:19;24.60;71.60
41668;DHT22;27356;50.920;5.350;2022-08-05T14:48:44;24.50;72.10
41668;DHT22;27356;50.920;5.350;2022-08-05T14:51:10;24.60;73.50
41668;DHT22;27356;50.920;5.350;2022-08-05T14:53:36;24.60;73.60
41668;DHT22;27356;50.920;5.350;2022-08-05T14:56:01;24.60;72.40
41668;DHT22;27356;50.920;5.350;2022-08-05T14:58:27;24.70;71.80
41668;DHT22;27356;50.920;5.350;2022-08-05T15:00:53;24.80;71.90
41668;DHT22;27356;50.920;5.350;2022-08-05T15:03:18;24.70;72.70
41668;DHT22;27356;50.920;5.350;2022-08-05T15:05:44;24.80;71.40
41668;DHT22;27356;50.920;5.350;2022-08-05T15:08:09;24.80;70.70
41668;DHT22;27356;50.920;5.350;2022-08-05T15:10:35;24.60;70.90
41668;DHT22;27356;50.920;5.350;2022-08-05T15:13:00;24.50;71.50
41668;DHT22;27356;50.920;5.350;2022-08-05T15:15:27;24.50;72.00
41668;DHT22;27356;50.920;5.350;2022-08-05T15:17:52;24.70;71.60
41668;DHT22;27356;50.920;5.350;2022-08-05T15:20:18;24.60;71.80
41668;DHT22;27356;50.920;5.350;2022-08-05T15:22:43;24.60;71.50
41668;DHT22;27356;50.920;5.350;2022-08-05T15:25:09;24.70;70.90
41668;DHT22;27356;50.920;5.350;2022-08-05T15:27:34;24.30;71.50
41668;DHT22;27356;50.920;5.350;2022-08-05T15:30:00;24.30;74.00
41668;DHT22;27356;50.920;5.350;2022-08-05T15:32:26;24.20;73.60
41668;DHT22;27356;50.920;5.350;2022-08-05T15:34:51;24.30;72.30
41668;DHT22;27356;50.920;5.350;2022-08-05T15:37:17;24.30;71.60
41668;DHT22;27356;50.920;5.350;2022-08-05T15:39:42;24.20;71.90
41668;DHT22;27356;50.920;5.350;2022-08-05T15:42:08;24.30;71.50
41668;DHT22;27356;50.920;5.350;2022-08-05T15:44:38;24.40;71.20
41668;DHT22;27356;50.920;5.350;2022-08-05T15:47:03;24.40;71.80
41668;DHT22;27356;50.920;5.350;2022-08-05T15:49:29;24.40;71.20
41668;DHT22;27356;50.920;5.350;2022-08-05T15:51:55;24.40;71.00
41668;DHT22;27356;50.920;5.350;2022-08-05T15:54:20;24.30;70.80
41668;DHT22;27356;50.920;5.350;2022-08-05T15:56:46;24.20;71.10
41668;DHT22;27356;50.920;5.350;2022-08-05T15:59:11;24.30;71.20
41668;DHT22;27356;50.920;5.350;2022-08-05T16:01:37;24.40;71.20
41668;DHT22;27356;50.920;5.350;2022-08-05T16:04:02;24.30;70.20
41668;DHT22;27356;50.920;5.350;2022-08-05T16:06:28;24.40;70.40